Time;durP1;ratioP1;P1;durP2;ratioP2;P2;SDS_P1;SDS_P2;PMS_P1;PMS_P2;Temp;Humidity;BMP_temperature;BMP_pressure;BME280_temperature;BME280_humidity;BME280_pressure;Samples;Min_cycle;Max_cycle;Signal;HPM_P1;HPM_P2
2024/02/06 00:00:18;;;;;;;13.00;4.70;;;6.50;99.90;;;6.94;100.00;98438.41;4980642;28;20495;-76
2024/02/06 00:02:46;;;;;;;10.90;4.13;;;6.40;99.90;;;6.92;100.00;98437.75;4980769;28;20471;-76
2024/02/06 00:05:14;;;;;;;18.33;4.67;;;6.30;99.90;;;6.87;100.00;98444.41;4979906;28;20471;-76
2024/02/06 00:07:43;;;;;;;12.50;5.10;;;6.40;99.90;;;6.89;100.00;98440.69;4980496;28;20459;-76
2024/02/06 00:10:12;;;;;;;18.03;5.30;;;6.40;99.90;;;6.90;100.00;98442.31;4980581;28;20831;-76
2024/02/06 00:12:42;;;;;;;19.07;5.23;;;6.50;99.90;;;6.83;100.00;98435.28;4981125;28;20471;-76
2024/02/06 00:15:11;;;;;;;6.37;3.77;;;6.50;99.90;;;6.85;100.00;98438.53;4980713;28;20510;-76
2024/02/06 00:17:39;;;;;;;9.80;4.87;;;6.40;99.90;;;6.87;100.00;98421.00;4980391;28;20515;-76
2024/02/06 00:20:09;;;;;;;12.10;4.80;;;6.40;99.90;;;6.88;100.00;98414.81;4981514;28;21011;-76
2024/02/06 00:22:38;;;;;;;12.30;5.37;;;6.40;99.90;;;6.96;100.00;98414.88;4979627;28;20983;-76
2024/02/06 00:25:08;;;;;;;14.20;4.50;;;6.50;99.90;;;7.01;100.00;98412.63;4981703;28;20475;-76
2024/02/06 00:27:36;;;;;;;15.50;4.77;;;6.60;99.90;;;6.95;100.00;98408.03;4980808;28;20495;-76
2024/02/06 00:30:08;;;;;;;9.63;4.67;;;6.60;99.90;;;6.95;100.00;98410.63;4981410;28;20472;-76
2024/02/06 00:32:36;;;;;;;11.10;4.33;;;6.50;99.90;;;6.97;100.00;98406.13;4980063;28;20550;-76
2024/02/06 00:35:06;;;;;;;8.17;4.33;;;6.60;99.90;;;7.00;100.00;98395.41;4980950;28;20471;-76
2024/02/06 00:37:34;;;;;;;7.07;3.33;;;6.50;99.90;;;7.07;100.00;98397.22;4982696;28;20499;-76
2024/02/06 00:40:04;;;;;;;6.90;3.83;;;6.60;99.90;;;7.02;100.00;98396.88;4980501;28;20464;-76
2024/02/06 00:42:32;;;;;;;15.70;3.67;;;6.60;99.90;;;7.04;100.00;98396.72;4979821;28;20467;-76
2024/02/06 00:45:02;;;;;;;5.90;3.37;;;6.60;99.90;;;7.03;100.00;98395.09;4980063;28;20464;-76
2024/02/06 00:47:32;;;;;;;11.00;3.80;;;6.60;99.90;;;7.05;100.00;98396.56;4981106;28;21024;-76
2024/02/06 00:50:01;;;;;;;6.10;3.07;;;6.60;99.90;;;7.11;100.00;98389.13;4979840;28;20470;-76
2024/02/06 00:52:30;;;;;;;12.63;3.37;;;6.60;99.90;;;7.08;100.00;98383.22;4980838;28;20912;-76
2024/02/06 00:54:59;;;;;;;7.07;3.47;;;6.70;99.90;;;7.08;100.00;98387.63;4979265;28;20733;-76
2024/02/06 00:57:27;;;;;;;9.20;3.07;;;6.70;99.90;;;7.11;100.00;98389.94;4979652;28;20495;-76
2024/02/06 00:59:56;;;;;;;6.10;2.53;;;6.70;99.90;;;7.14;100.00;98381.00;4980873;28;20466;-76
2024/02/06 01:02:25;;;;;;;3.30;2.50;;;6.70;99.90;;;7.14;100.00;98370.59;4981859;28;20506;-76
2024/02/06 01:04:55;;;;;;;5.63;1.70;;;6.80;99.90;;;7.09;100.00;98386.66;4983956;28;20841;-76
2024/02/06 01:07:25;;;;;;;3.90;2.40;;;6.70;99.90;;;7.13;100.00;98376.75;4984742;28;20882;-75
2024/02/06 01:09:54;;;;;;;5.83;2.40;;;6.70;99.90;;;7.18;100.00;98377.13;4984084;28;20973;-77
2024/02/06 01:12:23;;;;;;;4.03;2.20;;;6.70;99.90;;;7.16;100.00;98379.03;4983796;28;20459;-76
2024/02/06 01:14:51;;;;;;;4.13;2.10;;;6.70;99.90;;;7.14;100.00;98371.41;4982650;28;20463;-77
2024/02/06 01:17:20;;;;;;;7.83;2.77;;;6.60;99.90;;;7.16;100.00;98373.84;4984034;28;20979;-76
2024/02/06 01:19:48;;;;;;;12.80;3.10;;;6.60;99.90;;;7.08;100.00;98361.63;4984578;28;20468;-76
2024/02/06 01:22:18;;;;;;;6.77;2.93;;;6.50;99.90;;;7.10;100.00;98367.50;4983385;28;20486;-76
2024/02/06 01:24:46;;;;;;;3.60;2.43;;;6.70;99.90;;;7.11;100.00;98366.53;4982604;28;20480;-76
2024/02/06 01:27:15;;;;;;;10.37;2.90;;;6.60;99.90;;;7.08;100.00;98364.22;4983548;28;20530;-76
2024/02/06 01:29:43;;;;;;;9.60;3.30;;;6.60;99.90;;;7.08;100.00;98361.63;4983624;28;20468;-76
2024/02/06 01:32:12;;;;;;;6.63;3.10;;;6.50;99.90;;;7.09;100.00;98361.47;4983158;28;20495;-76
2024/02/06 01:34:42;;;;;;;7.33;2.73;;;6.70;99.90;;;7.01;100.00;98360.66;4982408;28;20467;-76
2024/02/06 01:37:11;;;;;;;5.00;2.90;;;6.60;99.90;;;6.97;100.00;98365.34;4982969;28;20519;-76
2024/02/06 01:39:41;;;;;;;10.13;3.93;;;6.60;99.90;;;6.93;100.00;98348.41;4982964;28;20555;-76
2024/02/06 01:42:09;;;;;;;4.53;2.63;;;6.50;99.90;;;6.90;100.00;98353.13;4982568;28;20521;-76
2024/02/06 01:44:38;;;;;;;6.87;2.93;;;6.50;99.90;;;6.91;100.00;98352.13;4984607;28;20463;-76
2024/02/06 01:47:09;;;;;;;6.30;2.50;;;6.50;99.90;;;6.93;100.00;98352.81;4982442;28;20472;-76
2024/02/06 01:49:38;;;;;;;6.63;3.37;;;6.50;99.90;;;6.90;100.00;98353.13;4982880;28;20503;-76
2024/02/06 01:52:09;;;;;;;7.10;3.93;;;6.60;99.90;;;6.86;100.00;98350.03;4982178;28;20479;-76
2024/02/06 01:54:38;;;;;;;7.20;3.90;;;6.50;99.90;;;6.93;100.00;98348.41;4982030;28;20480;-76
2024/02/06 01:57:08;;;;;;;12.10;3.40;;;6.50;99.90;;;6.91;100.00;98352.94;4982248;28;21199;-76
2024/02/06 01:59:36;;;;;;;6.30;2.67;;;6.50;99.90;;;6.90;100.00;98358.31;4982296;28;20969;-76
2024/02/06 02:02:05;;;;;;;6.07;4.13;;;6.40;99.90;;;6.91;100.00;98345.16;4981317;28;20475;-76
2024/02/06 02:04:35;;;;;;;5.63;3.20;;;6.50;99.90;;;6.90;100.00;98359.13;4982077;28;20467;-76
2024/02/06 02:07:04;;;;;;;7.73;3.30;;;6.40;99.90;;;6.89;100.00;98354.09;4982474;28;20479;-76
2024/02/06 02:09:33;;;;;;;9.30;3.60;;;6.40;99.90;;;6.88;100.00;98352.44;4982018;28;20472;-76
2024/02/06 02:12:02;;;;;;;4.63;2.83;;;6.40;99.90;;;6.88;100.00;98355.03;4980594;28;20571;-76
2024/02/06 02:14:32;;;;;;;5.50;2.90;;;6.50;99.90;;;6.88;100.00;98361.06;4981661;28;20491;-76
2024/02/06 02:17:01;;;;;;;4.83;2.73;;;6.40;99.90;;;6.92;100.00;98354.59;4983112;28;20499;-76
2024/02/06 02:19:29;;;;;;;9.03;3.53;;;6.50;99.90;;;6.95;100.00;98366.44;4983011;28;20459;-76
2024/02/06 02:21:59;;;;;;;7.33;3.60;;;6.40;99.90;;;6.81;100.00;98360.06;4983287;28;20476;-82
2024/02/06 02:24:28;;;;;;;7.83;3.63;;;6.40;99.90;;;6.83;100.00;98352.13;4981420;28;20745;-76
2024/02/06 02:26:57;;;;;;;10.07;3.20;;;6.50;99.90;;;6.81;100.00;98351.44;4982499;28;20522;-76
2024/02/06 02:29:27;;;;;;;7.50;3.10;;;6.30;99.90;;;6.70;100.00;98347.31;4982399;28;20483;-76
2024/02/06 02:31:56;;;;;;;8.13;3.80;;;6.20;99.90;;;6.72;100.00;98345.41;4981418;28;20488;-76
2024/02/06 02:34:24;;;;;;;11.40;3.67;;;6.20;99.90;;;6.66;100.00;98337.41;4982289;28;20660;-76
2024/02/06 02:36:53;;;;;;;4.37;3.00;;;6.10;99.90;;;6.71;100.00;98337.75;4981576;28;20463;-76
2024/02/06 02:39:23;;;;;;;9.67;3.60;;;6.20;99.90;;;6.74;100.00;98332.22;4982167;28;20908;-76
2024/02/06 02:41:51;;;;;;;5.37;2.80;;;6.20;99.90;;;6.71;100.00;98333.38;4979582;28;21050;-76
2024/02/06 02:44:20;;;;;;;5.40;2.90;;;6.30;99.90;;;6.75;100.00;98323.47;4982220;28;20468;-76
2024/02/06 02:46:48;;;;;;;7.80;3.70;;;6.40;99.90;;;6.73;100.00;98322.84;4982446;28;20499;-76
2024/02/06 02:49:17;;;;;;;8.10;3.37;;;6.40;99.90;;;6.77;100.00;98311.94;4981802;28;20467;-76
2024/02/06 02:51:46;;;;;;;7.00;3.20;;;6.40;99.90;;;6.75;100.00;98324.28;4982122;28;20983;-76
2024/02/06 02:54:16;;;;;;;8.43;3.13;;;6.30;99.90;;;6.67;100.00;98320.84;4981570;28;20553;-76
2024/02/06 02:56:45;;;;;;;6.77;2.67;;;6.30;99.90;;;6.71;100.00;98314.38;4981032;28;20473;-75
2024/02/06 02:59:14;;;;;;;6.33;3.03;;;6.30;99.90;;;6.70;100.00;98325.75;4981038;28;20918;-76
2024/02/06 03:01:42;;;;;;;10.03;3.63;;;6.30;99.90;;;6.76;100.00;98323.34;4981071;28;20471;-76
2024/02/06 03:04:12;;;;;;;8.50;3.67;;;6.30;99.90;;;6.76;100.00;98314.72;4981387;28;20510;-76
2024/02/06 03:06:43;;;;;;;8.17;2.60;;;6.40;99.90;;;6.70;100.00;98313.53;4981359;28;20506;-76
2024/02/06 03:09:14;;;;;;;4.13;3.10;;;6.40;99.90;;;6.66;100.00;98314.84;4981621;28;20884;-76
2024/02/06 03:11:43;;;;;;;14.20;2.20;;;6.30;99.90;;;6.63;100.00;98315.13;4980098;28;20526;-76
2024/02/06 03:14:13;;;;;;;3.07;2.30;;;6.30;99.90;;;6.70;100.00;98312.75;4981761;28;20457;-76
2024/02/06 03:16:41;;;;;;;9.27;3.30;;;6.30;99.90;;;6.70;100.00;98310.16;4979392;28;20558;-76
2024/02/06 03:19:10;;;;;;;4.43;2.70;;;6.30;99.90;;;6.71;100.00;98311.75;4980580;28;21080;-76
2024/02/06 03:21:38;;;;;;;5.73;2.90;;;6.20;99.90;;;6.68;100.00;98305.09;4980502;28;20463;-76
2024/02/06 03:24:07;;;;;;;16.47;2.67;;;6.30;99.90;;;6.67;100.00;98305.25;4980865;28;20471;-76
2024/02/06 03:26:36;;;;;;;5.47;2.53;;;6.20;99.90;;;6.70;100.00;98294.56;4980618;28;20968;-76
2024/02/06 03:29:05;;;;;;;6.53;3.13;;;6.20;99.90;;;6.70;100.00;98295.34;4979730;28;20989;-76
2024/02/06 03:31:35;;;;;;;4.67;2.37;;;6.30;99.90;;;6.69;100.00;98292.94;4980651;28;20550;-76
2024/02/06 03:34:03;;;;;;;6.77;2.93;;;6.30;99.90;;;6.70;100.00;98294.56;4980783;28;20966;-76
2024/02/06 03:36:32;;;;;;;3.47;3.17;;;6.30;99.90;;;6.59;100.00;98288.66;4980404;28;20482;-76
2024/02/06 03:39:00;;;;;;;5.40;2.47;;;6.10;99.90;;;6.60;100.00;98292.06;4980566;28;20923;-76
2024/02/06 03:41:29;;;;;;;5.17;2.70;;;6.20;99.90;;;6.68;100.00;98291.28;4979590;28;20471;-76
2024/02/06 03:43:57;;;;;;;6.57;2.77;;;6.20;99.90;;;6.65;100.00;98289.00;4980650;28;21026;-76
2024/02/06 03:46:26;;;;;;;5.10;2.00;;;6.20;99.90;;;6.59;100.00;98288.66;4980490;28;20518;-76
2024/02/06 03:48:58;;;;;;;6.90;3.77;;;6.10;99.90;;;6.61;100.00;98290.28;4981057;28;20554;-76
2024/02/06 03:51:27;;;;;;;9.53;2.67;;;6.30;99.90;;;6.62;100.00;98297.94;4980091;28;20518;-76
2024/02/06 03:53:55;;;;;;;4.40;2.03;;;6.20;99.90;;;6.58;100.00;98297.44;4980296;28;20455;-76
2024/02/06 03:56:24;;;;;;;12.33;3.00;;;6.30;99.90;;;6.55;100.00;98305.53;4981417;28;20464;-76
2024/02/06 03:58:52;;;;;;;5.10;1.93;;;6.20;99.90;;;6.55;100.00;98305.53;4980673;28;20627;-75
2024/02/06 04:01:20;;;;;;;6.37;2.57;;;6.20;99.90;;;6.58;100.00;98310.44;4978433;28;20495;-75
2024/02/06 04:03:49;;;;;;;3.60;2.53;;;6.10;99.90;;;6.55;100.00;98302.94;4979761;28;20559;-76
2024/02/06 04:06:20;;;;;;;4.00;2.40;;;6.00;99.90;;;6.58;100.00;98307.81;4980035;28;20468;-76
2024/02/06 04:08:49;;;;;;;6.17;2.67;;;6.20;99.90;;;6.60;100.00;98305.06;4980948;28;20829;-76
2024/02/06 04:11:17;;;;;;;5.43;3.47;;;6.10;99.90;;;6.62;100.00;98303.13;4975351;28;20566;-80
2024/02/06 04:13:46;;;;;;;3.57;2.30;;;6.20;99.90;;;6.56;100.00;98304.56;4977211;28;20467;-76
2024/02/06 04:16:16;;;;;;;4.50;2.30;;;6.20;99.90;;;6.62;100.00;98308.34;4975942;28;20594;-75
2024/02/06 04:18:44;;;;;;;5.27;2.77;;;6.20;99.90;;;6.58;100.00;98302.63;4978339;28;20506;-76
2024/02/06 04:21:13;;;;;;;3.60;2.37;;;6.10;99.90;;;6.59;100.00;98298.25;4977693;28;20492;-75
2024/02/06 04:23:42;;;;;;;4.30;2.27;;;6.10;99.90;;;6.62;100.00;98295.34;4977313;28;20456;-76
2024/02/06 04:26:11;;;;;;;4.87;2.73;;;6.10;99.90;;;6.62;100.00;98292.75;4975261;28;20480;-76
2024/02/06 04:28:39;;;;;;;13.40;7.10;;;6.10;99.90;;;6.64;100.00;98276.97;4977459;28;20463;-76
2024/02/06 04:31:11;;;;;;;5.73;3.37;;;6.10;99.90;;;6.66;100.00;98282.84;4973552;28;21020;-75
2024/02/06 04:33:41;;;;;;;6.27;2.97;;;6.20;99.90;;;6.60;100.00;98286.88;4980769;28;20535;-76
2024/02/06 04:36:10;;;;;;;5.60;2.80;;;6.00;99.90;;;6.64;100.00;98288.19;4980270;28;20470;-76
2024/02/06 04:38:39;;;;;;;6.57;2.37;;;6.20;99.90;;;6.66;100.00;98288.88;4983417;28;20994;-75
2024/02/06 04:41:08;;;;;;;2.93;2.60;;;6.10;99.90;;;6.61;100.00;98282.50;4983624;28;20511;-76
2024/02/06 04:43:37;;;;;;;3.20;2.30;;;6.10;99.90;;;6.56;100.00;98275.97;4986072;28;20456;-77
2024/02/06 04:46:06;;;;;;;18.03;7.90;;;6.10;99.90;;;6.56;100.00;98282.94;4979520;28;21705;-75
2024/02/06 04:48:34;;;;;;;6.23;3.00;;;6.10;99.90;;;6.51;100.00;98288.63;4980172;28;20463;-76
2024/02/06 04:51:03;;;;;;;2.03;1.80;;;6.00;99.90;;;6.52;100.00;98286.84;4983365;28;20870;-75
2024/02/06 04:53:31;;;;;;;4.97;2.53;;;6.10;99.90;;;6.57;100.00;98272.41;4984386;28;20472;-76
2024/02/06 04:56:00;;;;;;;2.40;2.00;;;6.20;99.90;;;6.54;100.00;98274.50;4984350;28;20467;-76
2024/02/06 04:58:30;;;;;;;1.93;1.67;;;6.20;99.90;;;6.55;100.00;98266.56;4984712;28;20782;-76
2024/02/06 05:00:58;;;;;;;3.93;2.20;;;6.10;99.90;;;6.52;100.00;98269.50;4984175;28;20464;-75
2024/02/06 05:03:27;;;;;;;3.07;2.27;;;6.10;99.90;;;6.46;100.00;98266.66;4983944;28;20964;-76
2024/02/06 05:05:55;;;;;;;3.90;1.90;;;6.10;99.90;;;6.48;100.00;98255.19;4984363;28;20464;-76
2024/02/06 05:08:24;;;;;;;7.90;2.27;;;6.20;99.90;;;6.51;100.00;98252.28;4983934;28;20510;-76
2024/02/06 05:10:55;;;;;;;4.33;1.87;;;6.10;99.90;;;6.46;100.00;98238.91;4983615;28;20459;-76
2024/02/06 05:13:23;;;;;;;3.70;1.97;;;5.90;99.90;;;6.52;100.00;98243.50;4983471;28;20467;-75
2024/02/06 05:15:53;;;;;;;7.30;2.10;;;6.10;99.90;;;6.52;100.00;98237.50;4982111;28;20990;-75
2024/02/06 05:18:22;;;;;;;27.60;15.07;;;6.00;99.90;;;6.55;100.00;98238.00;4976143;28;20951;-79
2024/02/06 05:20:50;;;;;;;6.70;2.40;;;6.10;99.90;;;6.53;100.00;98233.91;4976857;28;20486;-75
2024/02/06 05:23:19;;;;;;;4.50;2.20;;;6.10;99.90;;;6.52;100.00;98230.53;4980403;28;20567;-75
2024/02/06 05:25:47;;;;;;;3.30;2.13;;;6.20;99.90;;;6.53;100.00;98224.34;4979623;28;20495;-76
2024/02/06 05:28:16;;;;;;;5.13;2.40;;;6.20;99.90;;;6.52;100.00;98220.13;4981422;28;20479;-75
2024/02/06 05:30:45;;;;;;;3.50;2.83;;;6.20;99.90;;;6.49;100.00;98219.63;4979697;28;20582;-77
2024/02/06 05:33:15;;;;;;;5.67;3.20;;;6.20;99.90;;;6.52;100.00;98224.50;4981389;28;20460;-76
2024/02/06 05:35:44;;;;;;;3.83;2.70;;;6.20;99.90;;;6.49;100.00;98215.22;4979892;28;20479;-76
2024/02/06 05:38:13;;;;;;;7.30;3.33;;;6.20;99.90;;;6.48;100.00;98212.81;4984549;28;20467;-76
2024/02/06 05:40:41;;;;;;;4.90;3.10;;;6.10;99.90;;;6.47;100.00;98213.75;4986814;28;20502;-76
2024/02/06 05:43:10;;;;;;;3.97;2.27;;;6.00;99.90;;;6.49;100.00;98197.03;4988159;28;20464;-76
2024/02/06 05:45:39;;;;;;;5.47;2.80;;;6.10;99.90;;;6.50;100.00;98203.88;4987006;28;20468;-76
2024/02/06 05:48:10;;;;;;;4.93;2.87;;;6.10;99.90;;;6.50;100.00;98206.47;4989054;28;20545;-76
2024/02/06 05:50:40;;;;;;;3.83;2.07;;;6.00;99.90;;;6.56;100.00;98203.25;4990052;28;20459;-76
2024/02/06 05:53:09;;;;;;;4.20;2.37;;;6.10;99.90;;;6.53;100.00;98220.91;4988361;28;22112;-76
2024/02/06 05:55:37;;;;;;;5.73;3.30;;;6.00;99.90;;;6.50;100.00;98216.03;4988606;28;20929;-76
2024/02/06 05:58:06;;;;;;;6.77;3.27;;;6.10;99.90;;;6.45;100.00;98216.53;4988884;28;20472;-76
2024/02/06 06:00:34;;;;;;;6.00;3.23;;;6.00;99.90;;;6.47;100.00;98213.75;4988951;28;20495;-76
2024/02/06 06:03:03;;;;;;;6.33;2.77;;;6.00;99.90;;;6.50;100.00;98216.03;4987196;28;20502;-76
2024/02/06 06:05:34;;;;;;;6.27;3.00;;;6.10;99.90;;;6.45;100.00;98224.31;4986978;28;20467;-77
2024/02/06 06:08:05;;;;;;;5.17;2.90;;;5.90;99.90;;;6.44;100.00;98216.69;4988143;28;20475;-76
2024/02/06 06:10:33;;;;;;;5.27;3.13;;;6.00;99.90;;;6.44;100.00;98220.09;4988084;28;20547;-76
2024/02/06 06:13:02;;;;;;;5.17;3.27;;;5.90;99.90;;;6.40;100.00;98216.19;4988128;28;20474;-76
2024/02/06 06:15:30;;;;;;;5.63;3.60;;;5.90;99.90;;;6.33;100.00;98214.34;4986932;28;20499;-76
2024/02/06 06:17:59;;;;;;;4.70;3.07;;;5.90;99.90;;;6.37;100.00;98219.09;4987674;28;20464;-76
2024/02/06 06:20:27;;;;;;;3.90;3.10;;;6.00;99.90;;;6.40;100.00;98217.97;4988203;28;20554;-76
2024/02/06 06:22:56;;;;;;;6.07;3.07;;;5.90;99.90;;;6.47;100.00;98216.38;4987598;28;20472;-76
2024/02/06 06:25:26;;;;;;;7.27;3.70;;;6.00;99.90;;;6.44;100.00;98222.69;4987686;28;20530;-76
2024/02/06 06:27:55;;;;;;;5.07;2.97;;;5.80;99.90;;;6.41;100.00;98219.59;4988006;28;20574;-76
2024/02/06 06:30:24;;;;;;;4.70;2.80;;;5.80;99.90;;;6.40;100.00;98215.38;4987127;28;20507;-76
2024/02/06 06:32:52;;;;;;;9.60;3.30;;;5.90;99.90;;;6.46;100.00;98219.91;4987527;28;20879;-76
2024/02/06 06:35:21;;;;;;;4.50;3.27;;;6.00;99.90;;;6.46;100.00;98210.34;4987120;28;20463;-76
2024/02/06 06:37:49;;;;;;;6.30;3.23;;;5.90;99.90;;;6.43;100.00;98213.25;4987596;28;20495;-75
2024/02/06 06:40:18;;;;;;;5.00;3.47;;;5.90;99.90;;;6.43;100.00;98207.25;4986184;28;20518;-76
2024/02/06 06:42:48;;;;;;;8.30;3.80;;;6.00;99.90;;;6.48;100.00;98212.81;4987455;28;20480;-76
2024/02/06 06:45:17;;;;;;;5.67;3.73;;;6.10;99.90;;;6.51;100.00;98200.31;4987655;28;20456;-76
2024/02/06 06:47:45;;;;;;;5.70;3.43;;;6.10;99.90;;;6.45;100.00;98216.53;4987274;28;21038;-76
2024/02/06 06:50:14;;;;;;;6.20;2.80;;;6.00;99.90;;;6.49;100.00;98219.63;4988031;28;20467;-76
2024/02/06 06:52:43;;;;;;;3.60;2.47;;;6.10;99.90;;;6.49;100.00;98215.22;4986758;28;20499;-76
2024/02/06 06:55:12;;;;;;;4.37;3.03;;;6.10;99.90;;;6.44;100.00;98222.69;4987439;28;20464;-76
2024/02/06 06:57:43;;;;;;;5.63;3.17;;;6.00;99.90;;;6.41;100.00;98228.19;4987150;28;20554;-76
2024/02/06 07:00:15;;;;;;;3.13;2.60;;;5.90;99.90;;;6.44;100.00;98227.06;4986629;28;20566;-76
2024/02/06 07:02:44;;;;;;;5.73;3.70;;;5.90;99.90;;;6.45;100.00;98231.31;4987005;28;20492;-76
2024/02/06 07:05:12;;;;;;;7.70;3.87;;;5.90;99.90;;;6.48;100.00;98221.41;4986471;28;20542;-76
2024/02/06 07:07:41;;;;;;;4.20;3.10;;;6.10;99.90;;;6.45;100.00;98228.72;4986159;28;20472;-76
2024/02/06 07:10:10;;;;;;;4.70;2.67;;;6.10;99.90;;;6.45;100.00;98229.53;4986925;28;20962;-76
2024/02/06 07:12:39;;;;;;;4.53;2.97;;;6.10;99.90;;;6.51;100.00;98228.06;4984618;28;20579;-76
2024/02/06 07:15:08;;;;;;;4.53;3.33;;;6.10;99.90;;;6.45;100.00;98229.53;4985914;28;20842;-76
2024/02/06 07:17:39;;;;;;;6.90;3.50;;;6.00;99.90;;;6.43;100.00;98223.66;4986680;28;20472;-76
2024/02/06 07:20:09;;;;;;;5.30;3.50;;;6.20;99.90;;;6.49;100.00;98223.03;4986881;28;20953;-76
2024/02/06 07:22:38;;;;;;;4.03;3.10;;;6.20;99.90;;;6.53;100.00;98224.34;4987084;28;20503;-76
2024/02/06 07:25:07;;;;;;;6.60;3.70;;;6.10;99.90;;;6.51;100.00;98228.88;4984260;28;20585;-76
2024/02/06 07:27:36;;;;;;;4.00;2.97;;;6.10;99.90;;;6.48;100.00;98218.81;4985445;28;20499;-76
2024/02/06 07:30:07;;;;;;;4.83;3.37;;;6.20;99.90;;;6.47;100.00;98221.56;4985575;28;20538;-76
2024/02/06 07:32:36;;;;;;;8.23;3.10;;;6.20;99.90;;;6.54;100.00;98219.97;4986261;28;20796;-76
2024/02/06 07:35:12;;;;;;;7.67;3.90;;;6.10;99.90;;;6.52;100.00;98220.13;4986846;28;20456;-76
2024/02/06 07:37:40;;;;;;;6.90;3.37;;;6.10;99.90;;;6.54;100.00;98217.38;4986737;28;20506;-75
2024/02/06 07:40:10;;;;;;;7.63;3.27;;;6.20;99.90;;;6.59;100.00;98218.50;4984761;28;20506;-76
2024/02/06 07:42:39;;;;;;;5.23;3.40;;;6.20;99.90;;;6.59;100.00;98215.91;4984581;28;20478;-76
2024/02/06 07:45:08;;;;;;;4.43;3.00;;;6.10;99.90;;;6.62;100.00;98225.19;4985058;28;20482;-76
2024/02/06 07:47:37;;;;;;;3.43;2.80;;;6.30;99.90;;;6.56;100.00;98226.63;4986603;28;20543;-76
2024/02/06 07:50:06;;;;;;;4.20;3.20;;;6.20;99.90;;;6.55;100.00;98227.63;4984193;28;20599;-76
2024/02/06 07:52:37;;;;;;;4.80;2.90;;;6.10;99.90;;;6.59;100.00;98228.91;4985303;28;20463;-75
2024/02/06 07:55:07;;;;;;;4.70;2.67;;;6.10;99.90;;;6.63;100.00;98237.19;4983157;28;20551;-76
2024/02/06 07:57:36;;;;;;;3.67;2.30;;;6.20;99.90;;;6.59;100.00;98238.50;4985949;28;20543;-75
2024/02/06 08:00:09;;;;;;;3.87;2.63;;;6.00;99.90;;;6.62;100.00;98238.19;4985071;28;20542;-76
2024/02/06 08:02:37;;;;;;;8.13;3.60;;;6.10;99.90;;;6.62;100.00;98229.56;4984452;28;20965;-76
2024/02/06 08:05:07;;;;;;;3.70;2.90;;;6.20;99.90;;;6.67;100.00;98222.09;4985849;28;20467;-76
2024/02/06 08:07:40;;;;;;;5.10;2.60;;;6.30;99.90;;;6.67;100.00;98224.69;4985097;28;20467;-76
2024/02/06 08:10:10;;;;;;;8.43;3.37;;;6.20;99.90;;;6.59;100.00;98215.91;4984765;28;20468;-76
2024/02/06 08:12:39;;;;;;;3.83;2.50;;;6.10;99.90;;;6.64;100.00;98232.81;4984196;28;20494;-76
2024/02/06 08:15:09;;;;;;;3.90;2.70;;;6.10;99.90;;;6.67;100.00;98227.28;4984273;28;20539;-76
2024/02/06 08:17:40;;;;;;;7.53;3.00;;;6.20;99.90;;;6.71;100.00;98244.22;4984555;28;20482;-76
2024/02/06 08:20:10;;;;;;;4.43;2.77;;;6.30;99.90;;;6.72;100.00;98232.84;4985616;28;20518;-76
2024/02/06 08:22:47;;;;;;;8.20;4.10;;;6.20;99.90;;;6.75;100.00;98222.13;4984793;28;20496;-76
2024/02/06 08:25:18;;;;;;;3.10;2.80;;;6.30;99.90;;;6.73;100.00;98224.09;4984917;28;20483;-76
2024/02/06 08:27:46;;;;;;;5.33;3.43;;;6.30;99.90;;;6.73;100.00;98222.31;4985515;28;20467;-76
2024/02/06 08:30:16;;;;;;;6.67;4.30;;;6.30;99.90;;;6.68;100.00;98224.56;4985014;28;20460;-76
2024/02/06 08:32:45;;;;;;;7.20;3.93;;;6.10;99.90;;;6.71;100.00;98218.22;4985559;28;20567;-76
2024/02/06 08:35:14;;;;;;;14.60;3.37;;;6.20;99.90;;;6.66;100.00;98218.72;4985501;28;20551;-76
2024/02/06 08:37:44;;;;;;;7.97;4.10;;;6.10;99.90;;;6.62;100.00;98221.78;4986004;28;20464;-75
2024/02/06 08:40:14;;;;;;;10.87;4.47;;;6.10;99.90;;;6.62;100.00;98219.19;4986038;28;20475;-76
2024/02/06 08:42:42;;;;;;;9.97;4.43;;;6.00;99.90;;;6.61;100.00;98217.53;4985376;28;20836;-76
2024/02/06 08:45:11;;;;;;;5.77;3.87;;;6.10;99.90;;;6.63;100.00;98207.81;4983630;28;20464;-75
2024/02/06 08:47:40;;;;;;;5.17;3.80;;;6.10;99.90;;;6.66;100.00;98225.69;4985252;28;20467;-76
2024/02/06 08:50:10;;;;;;;8.30;5.17;;;6.20;99.90;;;6.65;100.00;98213.66;4985278;28;21018;-76
2024/02/06 08:52:39;;;;;;;4.70;3.80;;;6.20;99.90;;;6.67;100.00;98215.13;4985904;28;20490;-76
2024/02/06 08:55:10;;;;;;;6.30;4.10;;;6.20;99.90;;;6.68;100.00;98215.94;4986317;28;20478;-76
2024/02/06 08:57:38;;;;;;;11.87;4.53;;;6.20;99.90;;;6.71;100.00;98207.81;4986860;28;20480;-76
2024/02/06 09:00:11;;;;;;;7.53;4.30;;;6.20;99.90;;;6.69;100.00;98204.59;4985563;28;20456;-76
2024/02/06 09:02:40;;;;;;;6.67;4.37;;;6.20;99.90;;;6.65;100.00;98208.47;4983647;28;20866;-76
2024/02/06 09:05:09;;;;;;;4.57;4.00;;;6.30;99.90;;;6.69;100.00;98210.59;4984903;28;20467;-76
2024/02/06 09:07:38;;;;;;;6.13;4.37;;;6.20;99.90;;;6.64;100.00;98204.22;4986322;28;20475;-76
2024/02/06 09:10:09;;;;;;;11.53;4.50;;;6.20;99.90;;;6.64;100.00;98210.25;4985509;28;20459;-76
2024/02/06 09:12:37;;;;;;;7.23;4.40;;;6.20;99.90;;;6.64;100.00;98209.44;4984735;28;20461;-76
2024/02/06 09:15:07;;;;;;;6.87;4.50;;;6.20;99.90;;;6.60;100.00;98219.31;4985032;28;20558;-76
2024/02/06 09:17:37;;;;;;;8.10;3.83;;;6.10;99.90;;;6.64;100.00;98217.22;4985193;28;20463;-75
2024/02/06 09:20:06;;;;;;;6.23;4.20;;;6.30;99.90;;;6.71;100.00;98216.44;4983750;28;20499;-76
2024/02/06 09:22:37;;;;;;;6.23;3.80;;;6.30;99.90;;;6.67;100.00;98219.50;4985500;28;20503;-76
2024/02/06 09:25:10;;;;;;;7.33;3.10;;;6.20;99.90;;;6.69;100.00;98221.00;4988933;28;20570;-76
2024/02/06 09:27:42;;;;;;;6.37;3.83;;;6.30;99.90;;;6.73;100.00;98214.50;4987711;28;20460;-76
2024/02/06 09:30:17;;;;;;;9.10;3.90;;;6.30;99.90;;;6.75;100.00;98211.75;4986760;28;20475;-76
2024/02/06 09:32:45;;;;;;;7.60;3.60;;;6.20;99.90;;;6.82;100.00;98212.72;4989481;28;20460;-76
2024/02/06 09:35:14;;;;;;;4.17;3.57;;;6.30;99.90;;;6.81;100.00;98213.69;4988270;28;20466;-76
2024/02/06 09:37:43;;;;;;;15.43;3.90;;;6.40;99.90;;;6.83;100.00;98209.16;4988424;28;20482;-76
2024/02/06 09:40:13;;;;;;;5.70;3.70;;;6.40;99.90;;;6.76;100.00;98209.00;4988395;28;20990;-76
2024/02/06 09:42:43;;;;;;;7.80;4.53;;;6.20;99.90;;;6.72;100.00;98204.28;4989547;28;20480;-76
2024/02/06 09:45:13;;;;;;;7.47;3.97;;;6.20;99.90;;;6.78;100.00;98203.63;4988375;28;20881;-76
2024/02/06 09:47:42;;;;;;;4.63;3.70;;;6.30;99.90;;;6.77;100.00;98202.03;4988460;28;20464;-75
2024/02/06 09:50:11;;;;;;;14.73;4.20;;;6.30;99.90;;;6.79;100.00;98205.25;4987761;28;20526;-75
2024/02/06 09:52:49;;;;;;;6.43;3.73;;;6.30;99.90;;;6.85;100.00;98199.41;4988678;28;21016;-76
2024/02/06 09:55:24;;;;;;;8.03;4.17;;;6.30;99.90;;;6.85;100.00;98197.63;4988342;28;20463;-76
2024/02/06 09:57:54;;;;;;;6.53;3.77;;;6.50;99.90;;;6.82;100.00;98208.34;4988438;28;20921;-76
2024/02/06 10:00:25;;;;;;;5.43;3.93;;;6.40;99.90;;;6.82;100.00;98197.13;4988713;28;20828;-76
2024/02/06 10:02:59;;;;;;;3.93;3.17;;;6.40;99.90;;;6.84;100.00;98184.78;4987711;28;20543;-76
2024/02/06 10:05:34;;;;;;;5.00;3.70;;;6.40;99.90;;;6.87;100.00;98203.47;4988553;28;20471;-76
2024/02/06 10:08:04;;;;;;;5.37;3.60;;;6.40;99.90;;;6.89;100.00;98195.53;4987700;28;20471;-76
2024/02/06 10:10:36;;;;;;;3.97;3.57;;;6.40;99.90;;;6.92;100.00;98197.81;4987723;28;20456;-76
2024/02/06 10:13:05;;;;;;;6.33;3.90;;;6.40;99.90;;;7.00;100.00;98203.03;4986879;28;20472;-76
2024/02/06 10:15:35;;;;;;;5.60;4.10;;;6.50;99.90;;;7.03;100.00;98216.53;4987438;28;20563;-76
2024/02/06 10:18:05;;;;;;;7.70;3.60;;;6.60;99.90;;;7.03;100.00;98210.50;4987145;28;20464;-76
2024/02/06 10:20:43;;;;;;;6.57;3.70;;;6.60;99.90;;;7.01;100.00;98209.88;4987836;28;20522;-76
2024/02/06 10:23:14;;;;;;;7.93;3.60;;;6.70;99.90;;;6.97;100.00;98206.78;4987352;28;20495;-76
2024/02/06 10:25:44;;;;;;;7.70;3.57;;;6.70;99.90;;;6.98;100.00;98215.34;4988510;28;20859;-76
2024/02/06 10:28:21;;;;;;;5.93;4.53;;;6.50;99.90;;;6.97;100.00;98208.56;4986273;28;20503;-76
2024/02/06 10:30:51;;;;;;;5.73;3.10;;;6.50;99.90;;;7.03;100.00;98211.31;4986415;28;20487;-76
2024/02/06 10:33:20;;;;;;;5.10;3.43;;;6.60;99.90;;;7.06;100.00;98211.00;4985984;28;20535;-76